Главная страница
METAR-TAF:

METAR-TAF

Аэропорты :

Кюрасао, Нидерландские Антильские острова

широта: 12-12N, долгота: 068-58W, высота над уровнем моря: 9 м

Текущие метеонаблюдения

Эта сводка был подготовлена 1 час и 59 минут назад, в 21:00 UTC
Ветер 15 Узел от восточно-юго-восточный, изменяющийся между восточный и юго-восточный
Температура 29°C
Влажность 66%
Давление 1010 hPa
Видимость 10 км и более

METAR: TNCC 262100Z AUTO 11015KT 080V140 9999 NSC 29/22 Q1010 NOSIG

Время: 18:59 (22:59 UTC)

Прогноз

Эта сводка был подготовлена 7 часа и 19 минут назад, в 15:40 UTC
Прогноз действительный с 26-го 18 UTC до 27-го 18 UTC
Ветер 14 Узел от восточно-юго-восточный
Видимость 10 км и более
небольшая облачность на высоте 2000 фута
временами
С 27-го 07 UTC до 27-го 15 UTC
Рассеянная облачность на высоте 1500 фута

TAF: TNCC 261540Z 2618/2718 11014KT 9999 FEW020 TEMPO 2707/2715 BKN015

Метеонаблюдения и прогнозы для более 4000 аэропортов (сводки METAR и TAF).

Имеющиеся станции представлены на карте желтыми и красными точками.

Чтобы увидеть название станции, наведите на нее мышь.

Затем щелкните, чтобы увидеть метеонаблюдения и метеопрогнозы.

Управление картой: чтобы увеличить масштаб, щелкните зеленые кнопки с черным крестиком; чтобы уменьшить масштаб, щелкните зеленую кнопку с тире; для просмотра соседних карт щелкайте зеленые стрелки.


METAR-TAF: